createdAt,value
2023-03-25T00:00:14.228Z,99.99
2023-03-25T00:01:14.201Z,99.99
2023-03-25T00:02:14.210Z,99.99
2023-03-25T00:03:14.141Z,99.99
2023-03-25T00:04:14.100Z,99.84
2023-03-25T00:05:14.045Z,99.99
2023-03-25T00:06:14.008Z,99.99
2023-03-25T00:07:13.975Z,99.94
2023-03-25T00:08:13.951Z,99.99
2023-03-25T00:09:13.892Z,99.94
2023-03-25T00:10:13.955Z,99.99
2023-03-25T00:11:13.831Z,99.99
2023-03-25T00:12:13.812Z,99.94
2023-03-25T00:13:13.751Z,99.94
2023-03-25T00:14:13.723Z,99.99
2023-03-25T00:15:13.701Z,99.37
2023-03-25T00:16:13.675Z,99.37
2023-03-25T00:17:13.604Z,98.70
2023-03-25T00:18:13.575Z,98.79
2023-03-25T00:19:13.535Z,99.37
2023-03-25T00:20:13.492Z,98.99
2023-03-25T00:21:13.456Z,98.79
2023-03-25T00:22:13.425Z,98.60
2023-03-25T00:23:13.401Z,99.27
2023-03-25T00:24:13.353Z,99.18
2023-03-25T00:25:13.315Z,99.46
2023-03-25T00:26:13.275Z,99.27
2023-03-25T00:27:13.242Z,98.99
2023-03-25T00:28:13.216Z,99.37
2023-03-25T00:29:13.168Z,99.18
2023-03-25T00:30:13.145Z,98.99
2023-03-25T00:31:13.291Z,98.99
2023-03-25T00:32:13.061Z,98.51
2023-03-25T00:33:13.020Z,98.60
2023-03-25T00:34:12.995Z,99.18
2023-03-25T00:35:12.947Z,99.08
2023-03-25T00:36:12.937Z,99.46
2023-03-25T00:37:12.890Z,98.79
2023-03-25T00:38:12.843Z,98.99
2023-03-25T00:39:12.809Z,98.60
2023-03-25T00:40:12.769Z,98.60
2023-03-25T00:41:12.742Z,99.27
2023-03-25T00:42:12.704Z,99.55
2023-03-25T00:43:12.660Z,99.99
2023-03-25T00:44:12.617Z,99.99
2023-03-25T00:45:12.663Z,99.99
2023-03-25T00:46:12.591Z,99.99
2023-03-25T00:47:12.528Z,99.84
2023-03-25T00:48:12.480Z,99.99
2023-03-25T00:49:12.438Z,99.99
2023-03-25T00:50:12.404Z,99.99
2023-03-25T00:51:12.376Z,99.99
2023-03-25T00:52:12.336Z,99.99
2023-03-25T00:53:12.293Z,99.99
2023-03-25T00:54:12.261Z,99.99
2023-03-25T00:55:12.223Z,99.94
2023-03-25T00:56:12.186Z,99.99
2023-03-25T00:57:12.224Z,99.99
2023-03-25T00:58:12.118Z,99.94
2023-03-25T00:59:12.078Z,99.99
2023-03-25T01:00:12.050Z,99.75
2023-03-25T01:01:12.032Z,99.99
2023-03-25T01:02:11.997Z,99.99
2023-03-25T01:03:11.999Z,99.55
2023-03-25T01:04:11.927Z,99.94
2023-03-25T01:05:11.868Z,99.99
2023-03-25T01:06:11.826Z,99.27
2023-03-25T01:07:11.788Z,99.99
2023-03-25T01:08:11.753Z,99.99
2023-03-25T01:09:11.716Z,99.99
2023-03-25T01:10:11.728Z,99.99
2023-03-25T01:11:11.687Z,99.84
2023-03-25T01:12:11.605Z,99.84
2023-03-25T01:13:11.568Z,99.99
2023-03-25T01:14:11.574Z,99.75
2023-03-25T01:15:11.497Z,99.99
2023-03-25T01:16:11.555Z,99.99
2023-03-25T01:17:11.455Z,99.94
2023-03-25T01:18:11.386Z,99.94
2023-03-25T01:19:11.364Z,99.99
2023-03-25T01:20:11.316Z,99.27
2023-03-25T01:21:11.284Z,99.94
2023-03-25T01:22:11.240Z,99.99
2023-03-25T01:23:11.222Z,99.46
2023-03-25T01:24:11.170Z,99.84
2023-03-25T01:25:11.142Z,99.27
2023-03-25T01:26:11.094Z,99.46
2023-03-25T01:27:11.069Z,99.18
2023-03-25T01:28:11.020Z,99.08
2023-03-25T01:29:10.984Z,99.22
2023-03-25T01:30:10.959Z,99.08
2023-03-25T01:31:10.928Z,99.46
2023-03-25T01:32:10.875Z,99.65
2023-03-25T01:33:10.848Z,99.99
2023-03-25T01:34:10.810Z,99.99
2023-03-25T01:35:10.770Z,99.99
2023-03-25T01:36:10.770Z,99.37
2023-03-25T01:37:10.700Z,99.94
2023-03-25T01:38:10.660Z,99.99
2023-03-25T01:39:10.624Z,99.99
2023-03-25T01:40:10.594Z,99.84
2023-03-25T01:41:10.551Z,99.99
2023-03-25T01:42:10.528Z,99.99
2023-03-25T01:43:10.478Z,99.99
2023-03-25T01:44:10.461Z,99.99
2023-03-25T01:45:10.402Z,99.99
2023-03-25T01:46:10.419Z,99.99
2023-03-25T01:47:10.342Z,99.99
2023-03-25T01:48:10.295Z,99.99
2023-03-25T01:49:10.260Z,99.99
2023-03-25T01:50:10.221Z,99.99
2023-03-25T01:51:10.193Z,99.99
2023-03-25T01:52:10.151Z,99.99
2023-03-25T01:53:10.113Z,99.99
2023-03-25T01:54:10.079Z,99.99
2023-03-25T01:55:10.044Z,99.99
2023-03-25T01:56:10.008Z,99.99
2023-03-25T01:57:10.026Z,99.99
2023-03-25T01:58:09.936Z,99.99
2023-03-25T01:59:09.907Z,99.99
2023-03-25T02:00:09.860Z,99.99
2023-03-25T02:01:09.868Z,99.99
2023-03-25T02:02:09.784Z,99.99
2023-03-25T02:03:09.793Z,99.99
2023-03-25T02:04:09.716Z,99.99
2023-03-25T02:05:09.682Z,99.99
2023-03-25T02:06:09.639Z,99.99
2023-03-25T02:07:09.610Z,99.99
2023-03-25T02:08:09.572Z,99.99
2023-03-25T02:09:09.532Z,99.99
2023-03-25T02:10:09.563Z,99.99
2023-03-25T02:11:09.467Z,99.99
2023-03-25T02:12:09.429Z,99.99
2023-03-25T02:13:09.388Z,99.99
2023-03-25T02:14:09.357Z,99.99
2023-03-25T02:15:09.328Z,99.99
2023-03-25T02:16:09.300Z,99.99
2023-03-25T02:17:09.257Z,99.99
2023-03-25T02:18:09.223Z,99.99
2023-03-25T02:19:09.167Z,99.99
2023-03-25T02:20:09.166Z,99.99
2023-03-25T02:21:09.113Z,99.99
2023-03-25T02:22:09.090Z,99.99
2023-03-25T02:23:09.019Z,99.99
2023-03-25T02:24:08.981Z,99.99
2023-03-25T02:25:08.949Z,99.99
2023-03-25T02:26:08.911Z,99.99
2023-03-25T02:27:08.878Z,99.99
2023-03-25T02:28:08.840Z,99.99
2023-03-25T02:29:08.796Z,99.99
2023-03-25T02:30:08.768Z,99.99
2023-03-25T02:31:08.722Z,99.99
2023-03-25T02:32:08.723Z,99.99
2023-03-25T02:33:08.680Z,99.99
2023-03-25T02:34:08.612Z,99.99
2023-03-25T02:35:08.574Z,99.99
2023-03-25T02:36:08.592Z,99.99
2023-03-25T02:37:08.499Z,99.99
2023-03-25T02:38:08.461Z,99.99
2023-03-25T02:39:08.428Z,99.99
2023-03-25T02:40:08.404Z,99.99
2023-03-25T02:41:08.355Z,99.99
2023-03-25T02:42:08.319Z,99.99
2023-03-25T02:43:08.284Z,99.99
2023-03-25T02:44:08.243Z,99.99
2023-03-25T02:45:08.209Z,99.99
2023-03-25T02:46:08.185Z,99.99
2023-03-25T02:47:08.140Z,99.99
2023-03-25T02:48:08.155Z,99.99
2023-03-25T02:49:08.056Z,99.99
2023-03-25T02:50:08.010Z,99.99
2023-03-25T02:51:07.978Z,99.99
2023-03-25T02:52:07.948Z,99.99
2023-03-25T02:53:07.913Z,99.99
2023-03-25T02:54:07.869Z,99.99
2023-03-25T02:55:07.834Z,99.99
2023-03-25T02:56:07.796Z,99.99
2023-03-25T02:57:07.831Z,99.99
2023-03-25T02:58:07.735Z,99.99
2023-03-25T02:59:07.693Z,99.99
2023-03-25T03:00:07.652Z,99.99
2023-03-25T03:01:07.632Z,99.99
2023-03-25T03:02:07.602Z,99.99
2023-03-25T03:03:07.640Z,99.99
2023-03-25T03:04:07.502Z,99.99
2023-03-25T03:05:07.490Z,99.99
2023-03-25T03:06:07.426Z,99.99
2023-03-25T03:07:07.386Z,99.99
2023-03-25T03:08:07.357Z,99.99
2023-03-25T03:09:07.312Z,99.99
2023-03-25T03:10:07.278Z,99.99
2023-03-25T03:11:07.239Z,99.99
2023-03-25T03:12:07.200Z,99.99
2023-03-25T03:13:07.166Z,99.99
2023-03-25T03:14:07.149Z,99.99
2023-03-25T03:15:07.099Z,99.99
2023-03-25T03:16:07.071Z,99.99
2023-03-25T03:17:07.109Z,99.99
2023-03-25T03:18:07.105Z,99.99
2023-03-25T03:19:06.951Z,99.99
2023-03-25T03:20:06.918Z,99.99
2023-03-25T03:21:06.878Z,99.99
2023-03-25T03:22:06.843Z,99.99
2023-03-25T03:23:06.796Z,99.99
2023-03-25T03:24:06.763Z,99.99
2023-03-25T03:25:06.766Z,99.99
2023-03-25T03:26:06.708Z,99.99
2023-03-25T03:27:06.664Z,99.99
2023-03-25T03:28:06.622Z,99.99
2023-03-25T03:29:06.579Z,99.99
2023-03-25T03:30:06.563Z,99.99
2023-03-25T03:31:06.542Z,99.99
2023-03-25T03:32:07.360Z,99.99
2023-03-25T03:33:06.441Z,99.99
2023-03-25T03:34:06.402Z,99.99
2023-03-25T03:35:06.359Z,99.99
2023-03-25T03:36:06.364Z,99.99
2023-03-25T03:37:06.296Z,99.99
2023-03-25T03:38:06.250Z,99.99
2023-03-25T03:39:06.228Z,99.99
2023-03-25T03:40:06.176Z,99.99
2023-03-25T03:41:06.140Z,99.99
2023-03-25T03:42:06.097Z,99.99
2023-03-25T03:43:06.061Z,99.99
2023-03-25T03:44:06.024Z,99.99
2023-03-25T03:45:05.988Z,99.99
2023-03-25T03:46:05.982Z,99.99
2023-03-25T03:47:05.914Z,99.99
2023-03-25T03:48:05.937Z,99.99
2023-03-25T03:49:05.840Z,99.99
2023-03-25T03:50:05.802Z,99.99
2023-03-25T03:51:05.767Z,99.99
2023-03-25T03:52:08.121Z,99.99
2023-03-25T03:53:05.690Z,99.99
2023-03-25T03:54:05.664Z,99.99
2023-03-25T03:55:05.609Z,99.99
2023-03-25T03:56:05.583Z,99.99
2023-03-25T03:57:05.564Z,99.99
2023-03-25T03:58:05.522Z,99.99
2023-03-25T03:59:05.467Z,99.99
2023-03-25T04:00:05.432Z,99.99
2023-03-25T04:01:05.395Z,99.99
2023-03-25T04:02:05.376Z,99.99
2023-03-25T04:03:05.397Z,99.99
2023-03-25T04:04:05.353Z,99.99
2023-03-25T04:05:05.244Z,99.99
2023-03-25T04:06:05.213Z,99.99
2023-03-25T04:07:05.173Z,99.99
2023-03-25T04:08:05.142Z,99.99
2023-03-25T04:09:05.099Z,99.99
2023-03-25T04:10:05.062Z,99.99
2023-03-25T04:11:05.041Z,99.99
2023-03-25T04:12:04.985Z,99.99
2023-03-25T04:13:04.948Z,99.99
2023-03-25T04:14:04.918Z,99.99
2023-03-25T04:15:04.880Z,99.99
2023-03-25T04:16:04.870Z,99.99
2023-03-25T04:17:04.808Z,99.99
2023-03-25T04:18:04.785Z,99.99
2023-03-25T04:19:04.730Z,99.99
2023-03-25T04:20:04.708Z,99.99
2023-03-25T04:21:04.656Z,99.99
2023-03-25T04:22:04.626Z,99.99
2023-03-25T04:23:04.589Z,99.99
2023-03-25T04:24:04.555Z,99.99
2023-03-25T04:25:04.512Z,99.99
2023-03-25T04:26:04.480Z,99.99
2023-03-25T04:27:04.447Z,99.99
2023-03-25T04:28:04.399Z,99.99
2023-03-25T04:29:04.357Z,99.99
2023-03-25T04:30:04.322Z,99.99
2023-03-25T04:31:04.295Z,99.99
2023-03-25T04:32:04.255Z,99.99
2023-03-25T04:33:04.233Z,99.99
2023-03-25T04:34:04.177Z,99.99
2023-03-25T04:35:04.151Z,99.99
2023-03-25T04:36:04.151Z,99.99
2023-03-25T04:37:04.063Z,99.99
2023-03-25T04:38:04.028Z,99.99
2023-03-25T04:39:04.003Z,99.99
2023-03-25T04:40:03.955Z,99.99
2023-03-25T04:41:03.938Z,99.99
2023-03-25T04:42:03.919Z,99.99
2023-03-25T04:43:03.846Z,99.99
2023-03-25T04:44:03.810Z,99.99
2023-03-25T04:45:03.781Z,99.99
2023-03-25T04:46:03.768Z,99.99
2023-03-25T04:47:03.718Z,99.99
2023-03-25T04:48:03.688Z,99.99
2023-03-25T04:49:03.630Z,99.99
2023-03-25T04:50:03.591Z,99.99
2023-03-25T04:51:03.555Z,99.99
2023-03-25T04:52:03.525Z,99.99
2023-03-25T04:53:03.476Z,99.99
2023-03-25T04:54:03.444Z,99.99
2023-03-25T04:55:03.410Z,99.99
2023-03-25T04:56:03.377Z,99.69
2023-03-25T04:57:03.352Z,99.98
2023-03-25T04:58:03.299Z,99.98
2023-03-25T04:59:03.257Z,99.99
2023-03-25T05:00:03.221Z,99.98
2023-03-25T05:01:03.239Z,99.89
2023-03-25T05:02:03.149Z,99.99
2023-03-25T05:03:03.156Z,99.99
2023-03-25T05:04:03.104Z,99.99
2023-03-25T05:05:03.046Z,99.99
2023-03-25T05:06:02.997Z,99.69
2023-03-25T05:07:02.959Z,99.99
2023-03-25T05:08:02.950Z,99.99
2023-03-25T05:09:02.894Z,99.98
2023-03-25T05:10:02.849Z,99.99
2023-03-25T05:11:02.823Z,99.98
2023-03-25T05:12:02.775Z,99.79
2023-03-25T05:13:02.737Z,99.89
2023-03-25T05:14:02.715Z,99.99
2023-03-25T05:15:02.678Z,99.98
2023-03-25T05:16:02.667Z,99.84
2023-03-25T05:17:02.593Z,99.99
2023-03-25T05:18:02.580Z,99.89
2023-03-25T05:19:02.516Z,99.51
2023-03-25T05:20:02.485Z,99.98
2023-03-25T05:21:02.441Z,99.99
2023-03-25T05:22:02.405Z,99.98
2023-03-25T05:23:02.370Z,99.69
2023-03-25T05:24:02.343Z,99.98
2023-03-25T05:25:02.320Z,99.99
2023-03-25T05:26:02.255Z,99.99
2023-03-25T05:27:02.308Z,99.99
2023-03-25T05:28:02.201Z,99.99
2023-03-25T05:29:02.156Z,99.99
2023-03-25T05:30:02.124Z,99.99
2023-03-25T05:31:02.079Z,99.98
2023-03-25T05:32:02.118Z,99.99
2023-03-25T05:33:02.014Z,99.99
2023-03-25T05:34:01.965Z,99.99
2023-03-25T05:35:01.931Z,99.99
2023-03-25T05:36:01.926Z,99.99
2023-03-25T05:37:01.865Z,99.99
2023-03-25T05:38:01.825Z,99.89
2023-03-25T05:39:01.776Z,99.89
2023-03-25T05:40:01.751Z,99.99
2023-03-25T05:41:01.706Z,99.99
2023-03-25T05:42:01.673Z,99.32
2023-03-25T05:43:01.649Z,99.41
2023-03-25T05:44:01.642Z,99.32
2023-03-25T05:45:01.568Z,99.98
2023-03-25T05:46:01.559Z,99.41
2023-03-25T05:47:01.501Z,98.84
2023-03-25T05:48:01.499Z,99.99
2023-03-25T05:49:01.418Z,99.89
2023-03-25T05:50:01.382Z,99.51
2023-03-25T05:51:01.377Z,98.94
2023-03-25T05:52:01.299Z,99.32
2023-03-25T05:53:01.278Z,99.32
2023-03-25T05:54:01.236Z,99.37
2023-03-25T05:55:01.194Z,98.36
2023-03-25T05:56:01.162Z,98.60
2023-03-25T05:57:01.202Z,99.03
2023-03-25T05:58:01.115Z,98.84
2023-03-25T05:59:01.057Z,98.36
2023-03-25T06:00:01.009Z,99.22
2023-03-25T06:01:00.976Z,99.32
2023-03-25T06:02:00.960Z,99.13
2023-03-25T06:03:01.025Z,99.22
2023-03-25T06:04:00.913Z,98.46
2023-03-25T06:05:00.829Z,99.03
2023-03-25T06:06:00.788Z,99.03
2023-03-25T06:07:00.756Z,99.27
2023-03-25T06:08:00.727Z,98.60
2023-03-25T06:09:00.680Z,98.70
2023-03-25T06:10:00.645Z,98.41
2023-03-25T06:11:00.627Z,98.22
2023-03-25T06:12:00.577Z,98.18
2023-03-25T06:13:00.681Z,98.36
2023-03-25T06:14:02.437Z,98.03
2023-03-25T06:15:00.467Z,97.99
2023-03-25T06:16:00.501Z,97.99
2023-03-25T06:17:00.421Z,98.13
2023-03-25T06:18:00.434Z,98.03
2023-03-25T06:19:00.602Z,98.13
2023-03-25T06:20:00.280Z,98.22
2023-03-25T06:21:00.243Z,98.13
2023-03-25T06:22:00.205Z,98.18
2023-03-25T06:23:00.177Z,98.22
2023-03-25T06:24:00.164Z,98.13
2023-03-25T06:25:01.809Z,98.18
2023-03-25T06:26:00.085Z,97.94
2023-03-25T06:27:00.023Z,97.84
2023-03-25T06:27:59.996Z,97.46
2023-03-25T06:28:59.959Z,98.03
2023-03-25T06:29:59.916Z,97.84
2023-03-25T06:30:59.892Z,98.03
2023-03-25T06:31:59.856Z,97.60
2023-03-25T06:32:59.863Z,97.94
2023-03-25T06:33:59.771Z,98.03
2023-03-25T06:34:59.736Z,98.03
2023-03-25T06:35:59.726Z,97.84
2023-03-25T06:36:59.661Z,98.03
2023-03-25T06:37:59.620Z,97.94
2023-03-25T06:38:59.590Z,97.84
2023-03-25T06:39:59.546Z,97.84
2023-03-25T06:40:59.516Z,98.51
2023-03-25T06:41:59.487Z,98.41
2023-03-25T06:42:59.440Z,98.89
2023-03-25T06:43:59.456Z,99.27
2023-03-25T06:44:59.369Z,99.99
2023-03-25T06:45:59.369Z,99.99
2023-03-25T06:46:59.296Z,99.99
2023-03-25T06:47:59.295Z,99.99
2023-03-25T06:48:59.223Z,99.99
2023-03-25T06:49:59.248Z,99.99
2023-03-25T06:50:59.148Z,99.99
2023-03-25T06:51:59.113Z,99.99
2023-03-25T06:52:59.083Z,99.99
2023-03-25T06:53:59.102Z,99.99
2023-03-25T06:54:59.025Z,99.99
2023-03-25T06:55:58.967Z,99.99
2023-03-25T06:56:58.963Z,99.99
2023-03-25T06:57:58.892Z,99.99
2023-03-25T06:58:58.856Z,99.99
2023-03-25T06:59:58.831Z,99.99
2023-03-25T07:00:58.783Z,99.99
2023-03-25T07:01:58.775Z,99.99
2023-03-25T07:02:58.737Z,99.99
2023-03-25T07:03:58.672Z,99.99
2023-03-25T07:04:58.659Z,99.99
2023-03-25T07:05:58.598Z,99.99
2023-03-25T07:06:58.566Z,99.99
2023-03-25T07:07:58.525Z,99.99
2023-03-25T07:08:58.486Z,99.99
2023-03-25T07:09:58.462Z,99.99
2023-03-25T07:10:58.416Z,99.99
2023-03-25T07:11:58.395Z,99.99
2023-03-25T07:12:58.340Z,99.99
2023-03-25T07:13:58.304Z,99.99
2023-03-25T07:14:58.266Z,99.99
2023-03-25T07:15:58.276Z,99.99
2023-03-25T07:16:58.198Z,99.99
2023-03-25T07:17:58.189Z,99.99
2023-03-25T07:18:58.120Z,99.99
2023-03-25T07:19:58.083Z,99.99
2023-03-25T07:20:58.048Z,99.99
2023-03-25T07:21:58.025Z,99.99
2023-03-25T07:22:57.984Z,99.99
2023-03-25T07:23:57.960Z,99.99
2023-03-25T07:24:57.898Z,99.99
2023-03-25T07:25:57.877Z,99.99
2023-03-25T07:26:57.833Z,99.99
2023-03-25T07:27:57.785Z,99.99
2023-03-25T07:28:57.757Z,99.99
2023-03-25T07:29:57.720Z,99.99
2023-03-25T07:30:57.682Z,99.99
2023-03-25T07:31:57.644Z,99.99
2023-03-25T07:32:57.674Z,99.99
2023-03-25T07:33:57.566Z,99.99
2023-03-25T07:34:57.532Z,99.99
2023-03-25T07:35:57.549Z,99.99
2023-03-25T07:36:57.466Z,99.99
2023-03-25T07:37:57.428Z,99.99
2023-03-25T07:38:57.383Z,99.99
2023-03-25T07:39:57.359Z,99.99
2023-03-25T07:40:57.315Z,99.99
2023-03-25T07:41:57.281Z,99.99
2023-03-25T07:42:57.242Z,99.99
2023-03-25T07:43:57.200Z,99.99
2023-03-25T07:44:57.164Z,99.99
2023-03-25T07:45:57.419Z,99.99
2023-03-25T07:46:57.096Z,99.99
2023-03-25T07:47:57.081Z,99.99
2023-03-25T07:48:57.025Z,99.99
2023-03-25T07:49:56.986Z,99.99
2023-03-25T07:50:56.954Z,99.99
2023-03-25T07:51:56.908Z,99.99
2023-03-25T07:52:56.873Z,99.99
2023-03-25T07:53:56.849Z,99.99
2023-03-25T07:54:56.794Z,99.99
2023-03-25T07:55:56.759Z,99.99
2023-03-25T07:56:56.754Z,99.99
2023-03-25T07:57:56.690Z,99.99
2023-03-25T07:58:56.658Z,99.99
2023-03-25T07:59:56.618Z,99.99
2023-03-25T08:00:56.584Z,99.99
2023-03-25T08:01:56.566Z,99.99
2023-03-25T08:02:56.559Z,99.99
2023-03-25T08:03:56.486Z,99.99
2023-03-25T08:04:56.433Z,99.99
2023-03-25T08:05:56.400Z,99.99
2023-03-25T08:06:56.359Z,99.99
2023-03-25T08:07:56.318Z,99.99
2023-03-25T08:08:56.284Z,99.99
2023-03-25T08:09:56.254Z,99.99
2023-03-25T08:10:56.214Z,99.99
2023-03-25T08:11:56.188Z,99.99
2023-03-25T08:12:56.167Z,99.99
2023-03-25T08:13:56.097Z,99.99
2023-03-25T08:14:56.068Z,99.99
2023-03-25T08:15:56.112Z,99.99
2023-03-25T08:16:56.012Z,99.99
2023-03-25T08:17:55.977Z,99.99
2023-03-25T08:18:55.917Z,99.99
2023-03-25T08:19:55.879Z,99.99
2023-03-25T08:20:55.877Z,99.99
2023-03-25T08:21:55.800Z,99.99
2023-03-25T08:22:55.768Z,99.99
2023-03-25T08:23:55.739Z,99.99
2023-03-25T08:24:55.690Z,99.99
2023-03-25T08:25:55.670Z,99.65
2023-03-25T08:26:55.668Z,99.99
2023-03-25T08:27:55.681Z,99.94
2023-03-25T08:28:55.547Z,99.99
2023-03-25T08:29:55.509Z,99.99
2023-03-25T08:30:55.718Z,99.99
2023-03-25T08:31:55.518Z,99.99
2023-03-25T08:32:55.431Z,99.99
2023-03-25T08:33:55.356Z,98.89
2023-03-25T08:34:55.321Z,98.32
2023-03-25T08:35:55.306Z,98.79
2023-03-25T08:36:55.248Z,97.75
2023-03-25T08:37:55.246Z,98.03
2023-03-25T08:38:55.178Z,97.84
2023-03-25T08:39:55.203Z,98.13
2023-03-25T08:40:55.104Z,98.03
2023-03-25T08:41:55.063Z,98.32
2023-03-25T08:42:55.029Z,97.89
2023-03-25T08:43:54.997Z,98.08
2023-03-25T08:44:54.958Z,97.51
2023-03-25T08:45:55.104Z,96.75
2023-03-25T08:46:54.895Z,96.75
2023-03-25T08:47:54.879Z,96.17
2023-03-25T08:48:54.845Z,96.75
2023-03-25T08:49:54.780Z,97.13
2023-03-25T08:50:54.751Z,97.13
2023-03-25T08:51:54.704Z,96.65
2023-03-25T08:52:54.678Z,97.03
2023-03-25T08:53:54.635Z,97.32
2023-03-25T08:54:54.655Z,98.08
2023-03-25T08:55:54.567Z,96.56
2023-03-25T08:56:54.581Z,96.94
2023-03-25T08:57:54.521Z,96.08
2023-03-25T08:58:54.459Z,96.94
2023-03-25T08:59:54.410Z,96.27
2023-03-25T09:00:54.420Z,96.27
2023-03-25T09:01:55.698Z,96.84
2023-03-25T09:02:54.362Z,96.65
2023-03-25T09:03:54.273Z,97.03
2023-03-25T09:04:54.280Z,96.75
2023-03-25T09:05:54.377Z,96.84
2023-03-25T09:07:11.093Z,96.65
2023-03-25T09:07:54.128Z,96.08
2023-03-25T09:08:54.095Z,96.17
2023-03-25T09:09:54.063Z,96.17
2023-03-25T09:10:54.015Z,95.61
2023-03-25T09:11:53.979Z,95.61
2023-03-25T09:12:53.967Z,95.94
2023-03-25T09:13:53.907Z,95.94
2023-03-25T09:14:53.873Z,96.22
2023-03-25T09:15:54.175Z,95.84
2023-03-25T09:16:53.811Z,95.94
2023-03-25T09:17:53.806Z,95.75
2023-03-25T09:18:53.727Z,95.51
2023-03-25T09:19:54.764Z,95.41
2023-03-25T09:20:53.665Z,95.56
2023-03-25T09:21:53.629Z,95.65
2023-03-25T09:22:53.581Z,95.65
2023-03-25T09:23:53.560Z,95.56
2023-03-25T09:24:53.516Z,95.37
2023-03-25T09:25:53.495Z,95.56
2023-03-25T09:26:53.440Z,95.65
2023-03-25T09:27:53.414Z,95.65
2023-03-25T09:28:53.389Z,94.70
2023-03-25T09:29:53.331Z,94.51
2023-03-25T09:30:53.314Z,93.65
2023-03-25T09:31:53.288Z,94.32
2023-03-25T09:32:53.282Z,95.37
2023-03-25T09:33:53.193Z,94.98
2023-03-25T09:34:53.161Z,95.65
2023-03-25T09:35:53.362Z,95.46
2023-03-25T09:36:53.082Z,95.17
2023-03-25T09:37:53.043Z,95.17
2023-03-25T09:38:53.015Z,94.51
2023-03-25T09:39:52.996Z,95.37
2023-03-25T09:40:52.938Z,95.27
2023-03-25T09:41:52.903Z,95.37
2023-03-25T09:42:52.870Z,95.94
2023-03-25T09:43:52.861Z,96.22
2023-03-25T09:44:52.797Z,95.37
2023-03-25T09:45:52.887Z,95.32
2023-03-25T09:46:52.772Z,95.32
2023-03-25T09:47:52.705Z,95.12
2023-03-25T09:48:52.659Z,95.89
2023-03-25T09:49:52.637Z,94.84
2023-03-25T09:50:52.582Z,94.56
2023-03-25T09:51:52.545Z,94.17
2023-03-25T09:52:52.536Z,94.17
2023-03-25T09:53:52.478Z,93.98
2023-03-25T09:54:52.476Z,93.31
2023-03-25T09:55:52.689Z,94.27
2023-03-25T09:56:52.405Z,94.07
2023-03-25T09:57:52.338Z,94.36
2023-03-25T09:58:52.297Z,94.56
2023-03-25T09:59:52.275Z,94.36
2023-03-25T10:00:52.262Z,94.65
2023-03-25T10:01:52.251Z,94.65
2023-03-25T10:02:52.222Z,93.31
2023-03-25T10:03:52.121Z,93.41
2023-03-25T10:04:52.091Z,93.98
2023-03-25T10:05:52.396Z,94.36
2023-03-25T10:06:52.022Z,94.32
2023-03-25T10:07:54.233Z,94.56
2023-03-25T10:08:51.947Z,95.27
2023-03-25T10:09:51.910Z,96.03
2023-03-25T10:10:51.884Z,95.37
2023-03-25T10:11:51.847Z,95.46
2023-03-25T10:12:51.806Z,95.65
2023-03-25T10:13:51.779Z,95.17
2023-03-25T10:14:51.732Z,96.51
2023-03-25T10:15:51.884Z,98.22
2023-03-25T10:16:51.667Z,98.51
2023-03-25T10:17:51.642Z,99.37
2023-03-25T10:18:51.593Z,98.56
2023-03-25T10:19:51.563Z,98.75
2023-03-25T10:20:52.234Z,97.70
2023-03-25T10:21:51.489Z,98.94
2023-03-25T10:22:51.445Z,99.46
2023-03-25T10:23:51.424Z,99.85
2023-03-25T10:24:51.393Z,99.56
2023-03-25T10:25:51.525Z,99.56
2023-03-25T10:26:51.316Z,99.95
2023-03-25T10:27:51.290Z,97.75
2023-03-25T10:28:51.242Z,97.37
2023-03-25T10:29:51.202Z,96.13
2023-03-25T10:30:51.170Z,96.03
2023-03-25T10:31:51.155Z,95.17
2023-03-25T10:32:51.151Z,95.08
2023-03-25T10:33:51.058Z,94.60
2023-03-25T10:34:51.052Z,94.79
2023-03-25T10:35:51.191Z,94.89
2023-03-25T10:36:50.952Z,95.22
2023-03-25T10:37:50.930Z,94.93
2023-03-25T10:38:50.888Z,95.41
2023-03-25T10:39:50.847Z,95.41
2023-03-25T10:40:50.841Z,95.41
2023-03-25T10:41:50.772Z,94.56
2023-03-25T10:42:50.736Z,93.79
2023-03-25T10:43:50.704Z,94.56
2023-03-25T10:44:50.673Z,94.84
2023-03-25T10:45:50.939Z,95.46
2023-03-25T10:46:50.613Z,96.61
2023-03-25T10:47:50.586Z,98.70
2023-03-25T10:48:50.545Z,99.99
2023-03-25T10:49:50.499Z,99.99
2023-03-25T10:50:50.462Z,99.99
2023-03-25T10:51:50.415Z,99.99
2023-03-25T10:52:50.383Z,99.99
2023-03-25T10:53:50.345Z,99.99
2023-03-25T10:54:50.312Z,99.99
2023-03-25T10:55:50.390Z,99.60
2023-03-25T10:56:50.250Z,99.51
2023-03-25T10:57:50.212Z,99.85
2023-03-25T10:58:50.172Z,99.75
2023-03-25T10:59:50.136Z,98.70
2023-03-25T11:00:50.120Z,99.66
2023-03-25T11:01:50.050Z,99.99
2023-03-25T11:02:50.119Z,99.99
2023-03-25T11:03:49.980Z,97.94
2023-03-25T11:04:49.951Z,97.75
2023-03-25T11:05:50.145Z,96.61
2023-03-25T11:06:49.873Z,97.37
2023-03-25T11:07:49.834Z,96.41
2023-03-25T11:08:49.807Z,96.08
2023-03-25T11:09:49.776Z,96.66
2023-03-25T11:10:49.738Z,96.84
2023-03-25T11:11:49.694Z,96.42
2023-03-25T11:12:49.657Z,95.84
2023-03-25T11:13:49.624Z,95.46
2023-03-25T11:14:49.593Z,95.56
2023-03-25T11:15:49.934Z,94.98
2023-03-25T11:16:49.555Z,95.36
2023-03-25T11:17:49.530Z,95.56
2023-03-25T11:18:49.448Z,95.36
2023-03-25T11:19:49.409Z,93.26
2023-03-25T11:20:49.380Z,92.65
2023-03-25T11:21:49.357Z,93.07
2023-03-25T11:22:49.321Z,93.26
2023-03-25T11:23:49.275Z,92.79
2023-03-25T11:24:49.232Z,92.55
2023-03-25T11:25:49.579Z,92.02
2023-03-25T11:26:49.161Z,91.93
2023-03-25T11:27:49.128Z,91.93
2023-03-25T11:28:49.093Z,92.50
2023-03-25T11:29:49.055Z,92.79
2023-03-25T11:30:49.120Z,92.12
2023-03-25T11:31:48.984Z,92.12
2023-03-25T11:32:49.075Z,91.16
2023-03-25T11:33:48.919Z,91.40
2023-03-25T11:34:48.914Z,91.21
2023-03-25T11:35:49.037Z,91.54
2023-03-25T11:36:48.812Z,90.49
2023-03-25T11:37:48.780Z,89.30
2023-03-25T11:38:48.743Z,89.49
2023-03-25T11:39:48.715Z,90.88
2023-03-25T11:40:48.673Z,90.01
2023-03-25T11:41:48.637Z,88.96
2023-03-25T11:42:48.619Z,89.73
2023-03-25T11:43:48.601Z,89.44
2023-03-25T11:44:48.536Z,89.01
2023-03-25T11:45:48.519Z,90.35
2023-03-25T11:46:48.471Z,90.88
2023-03-25T11:47:48.471Z,89.53
2023-03-25T11:48:48.395Z,88.96
2023-03-25T11:49:48.365Z,88.96
2023-03-25T11:50:48.333Z,90.01
2023-03-25T11:51:48.295Z,88.87
2023-03-25T11:52:48.274Z,88.91
2023-03-25T11:53:48.355Z,89.29
2023-03-25T11:54:48.195Z,88.68
2023-03-25T11:55:48.161Z,88.68
2023-03-25T11:56:48.160Z,88.87
2023-03-25T11:57:48.093Z,88.87
2023-03-25T11:58:48.060Z,88.58
2023-03-25T11:59:48.034Z,88.10
2023-03-25T12:00:48.000Z,87.91
2023-03-25T12:01:47.958Z,88.81
2023-03-25T12:02:47.996Z,89.05
2023-03-25T12:03:48.194Z,87.19
2023-03-25T12:04:47.858Z,87.19
2023-03-25T12:05:47.828Z,87.09
2023-03-25T12:06:47.820Z,87.00
2023-03-25T12:07:47.755Z,86.80
2023-03-25T12:08:47.720Z,87.09
2023-03-25T12:09:47.691Z,86.23
2023-03-25T12:10:47.652Z,85.57
2023-03-25T12:11:47.669Z,85.28
2023-03-25T12:12:47.586Z,84.80
2023-03-25T12:13:47.553Z,84.84
2023-03-25T12:14:47.515Z,84.08
2023-03-25T12:15:47.513Z,83.69
2023-03-25T12:16:47.452Z,83.89
2023-03-25T12:17:47.467Z,84.08
2023-03-25T12:18:47.417Z,83.89
2023-03-25T12:19:47.368Z,83.73
2023-03-25T12:20:47.328Z,83.73
2023-03-25T12:21:47.306Z,83.26
2023-03-25T12:22:47.250Z,83.73
2023-03-25T12:23:47.219Z,84.02
2023-03-25T12:24:47.186Z,83.26
2023-03-25T12:25:47.175Z,83.26
2023-03-25T12:26:47.123Z,83.30
2023-03-25T12:27:47.088Z,82.34
2023-03-25T12:28:47.059Z,82.30
2023-03-25T12:29:47.036Z,81.92
2023-03-25T12:30:47.002Z,81.92
2023-03-25T12:31:46.996Z,82.53
2023-03-25T12:32:46.933Z,83.01
2023-03-25T12:33:46.893Z,82.30
2023-03-25T12:34:46.871Z,81.92
2023-03-25T12:35:46.860Z,82.40
2023-03-25T12:36:46.801Z,82.07
2023-03-25T12:37:46.755Z,83.03
2023-03-25T12:38:46.732Z,83.50
2023-03-25T12:39:46.695Z,83.22
2023-03-25T12:40:46.663Z,83.73
2023-03-25T12:41:46.670Z,83.73
2023-03-25T12:42:46.599Z,83.26
2023-03-25T12:43:46.568Z,84.22
2023-03-25T12:44:46.533Z,83.54
2023-03-25T12:45:46.563Z,84.02
2023-03-25T12:46:46.465Z,84.22
2023-03-25T12:47:46.458Z,85.17
2023-03-25T12:48:46.402Z,84.12
2023-03-25T12:49:46.382Z,82.49
2023-03-25T12:50:46.335Z,82.78
2023-03-25T12:51:46.314Z,83.01